sensor_id;sensor_type;location;lat;lon;timestamp;P1;durP1;ratioP1;P2;durP2;ratioP2
3177;SDS011;38141;42.666;23.344;2023-05-07T00:02:17;13.10;;;9.30;;
3177;SDS011;38141;42.666;23.344;2023-05-07T00:04:44;14.80;;;10.60;;
3177;SDS011;38141;42.666;23.344;2023-05-07T00:07:11;15.43;;;10.40;;
3177;SDS011;38141;42.666;23.344;2023-05-07T00:09:37;18.77;;;12.60;;
3177;SDS011;38141;42.666;23.344;2023-05-07T00:12:05;17.33;;;11.37;;
3177;SDS011;38141;42.666;23.344;2023-05-07T00:14:32;20.80;;;12.33;;
3177;SDS011;38141;42.666;23.344;2023-05-07T00:17:00;20.90;;;13.23;;
3177;SDS011;38141;42.666;23.344;2023-05-07T00:19:27;20.40;;;13.80;;
3177;SDS011;38141;42.666;23.344;2023-05-07T00:21:55;21.83;;;13.83;;
3177;SDS011;38141;42.666;23.344;2023-05-07T00:24:23;25.97;;;15.93;;
3177;SDS011;38141;42.666;23.344;2023-05-07T00:26:50;20.40;;;13.93;;
3177;SDS011;38141;42.666;23.344;2023-05-07T00:29:17;19.53;;;12.00;;
3177;SDS011;38141;42.666;23.344;2023-05-07T00:31:44;23.10;;;15.03;;
3177;SDS011;38141;42.666;23.344;2023-05-07T00:34:12;20.83;;;15.30;;
3177;SDS011;38141;42.666;23.344;2023-05-07T00:36:39;30.50;;;17.73;;
3177;SDS011;38141;42.666;23.344;2023-05-07T00:39:06;23.07;;;15.97;;
3177;SDS011;38141;42.666;23.344;2023-05-07T00:41:33;27.77;;;18.30;;
3177;SDS011;38141;42.666;23.344;2023-05-07T00:44:00;25.30;;;16.47;;
3177;SDS011;38141;42.666;23.344;2023-05-07T00:46:27;17.40;;;11.83;;
3177;SDS011;38141;42.666;23.344;2023-05-07T00:48:55;22.57;;;13.10;;
3177;SDS011;38141;42.666;23.344;2023-05-07T00:51:23;18.63;;;13.10;;
3177;SDS011;38141;42.666;23.344;2023-05-07T00:53:52;17.73;;;13.63;;
3177;SDS011;38141;42.666;23.344;2023-05-07T00:56:20;20.73;;;13.60;;
3177;SDS011;38141;42.666;23.344;2023-05-07T00:58:47;20.03;;;12.80;;
3177;SDS011;38141;42.666;23.344;2023-05-07T01:01:14;20.53;;;14.10;;
3177;SDS011;38141;42.666;23.344;2023-05-07T01:03:41;24.40;;;13.77;;
3177;SDS011;38141;42.666;23.344;2023-05-07T01:06:08;20.23;;;14.60;;
3177;SDS011;38141;42.666;23.344;2023-05-07T01:08:39;18.77;;;14.13;;
3177;SDS011;38141;42.666;23.344;2023-05-07T01:11:06;20.30;;;13.93;;
3177;SDS011;38141;42.666;23.344;2023-05-07T01:13:34;19.83;;;12.90;;
3177;SDS011;38141;42.666;23.344;2023-05-07T01:16:01;18.10;;;12.80;;
3177;SDS011;38141;42.666;23.344;2023-05-07T01:18:30;17.20;;;11.70;;
3177;SDS011;38141;42.666;23.344;2023-05-07T01:20:57;17.27;;;10.77;;
3177;SDS011;38141;42.666;23.344;2023-05-07T01:23:26;17.23;;;10.90;;
3177;SDS011;38141;42.666;23.344;2023-05-07T01:25:54;13.97;;;9.40;;
3177;SDS011;38141;42.666;23.344;2023-05-07T01:28:21;11.10;;;9.20;;
3177;SDS011;38141;42.666;23.344;2023-05-07T01:30:49;12.30;;;9.07;;
3177;SDS011;38141;42.666;23.344;2023-05-07T01:33:19;9.60;;;7.73;;
3177;SDS011;38141;42.666;23.344;2023-05-07T01:35:48;15.40;;;8.90;;
3177;SDS011;38141;42.666;23.344;2023-05-07T01:38:17;10.70;;;8.17;;
3177;SDS011;38141;42.666;23.344;2023-05-07T01:40:46;12.20;;;8.43;;
3177;SDS011;38141;42.666;23.344;2023-05-07T01:43:13;11.00;;;8.17;;
3177;SDS011;38141;42.666;23.344;2023-05-07T01:45:40;9.77;;;7.87;;
3177;SDS011;38141;42.666;23.344;2023-05-07T01:48:09;8.50;;;7.00;;
3177;SDS011;38141;42.666;23.344;2023-05-07T01:50:37;11.97;;;7.93;;
3177;SDS011;38141;42.666;23.344;2023-05-07T01:53:04;10.87;;;8.00;;
3177;SDS011;38141;42.666;23.344;2023-05-07T01:55:31;10.47;;;8.20;;
3177;SDS011;38141;42.666;23.344;2023-05-07T01:57:59;11.47;;;8.70;;
3177;SDS011;38141;42.666;23.344;2023-05-07T02:00:26;11.60;;;7.90;;
3177;SDS011;38141;42.666;23.344;2023-05-07T02:02:53;10.70;;;8.00;;
3177;SDS011;38141;42.666;23.344;2023-05-07T02:05:19;11.90;;;7.90;;
3177;SDS011;38141;42.666;23.344;2023-05-07T02:07:46;18.30;;;9.70;;
3177;SDS011;38141;42.666;23.344;2023-05-07T02:10:13;10.47;;;8.03;;
3177;SDS011;38141;42.666;23.344;2023-05-07T02:12:40;16.00;;;10.20;;
3177;SDS011;38141;42.666;23.344;2023-05-07T02:15:09;16.50;;;9.83;;
3177;SDS011;38141;42.666;23.344;2023-05-07T02:17:38;20.33;;;11.20;;
3177;SDS011;38141;42.666;23.344;2023-05-07T02:20:24;15.17;;;10.27;;
3177;SDS011;38141;42.666;23.344;2023-05-07T02:22:50;12.60;;;9.23;;
3177;SDS011;38141;42.666;23.344;2023-05-07T02:25:17;14.13;;;10.77;;
3177;SDS011;38141;42.666;23.344;2023-05-07T02:27:44;14.97;;;10.00;;
3177;SDS011;38141;42.666;23.344;2023-05-07T02:30:13;13.23;;;10.20;;
3177;SDS011;38141;42.666;23.344;2023-05-07T02:32:40;17.40;;;10.87;;
3177;SDS011;38141;42.666;23.344;2023-05-07T02:35:07;11.23;;;9.07;;
3177;SDS011;38141;42.666;23.344;2023-05-07T02:37:34;13.37;;;10.50;;
3177;SDS011;38141;42.666;23.344;2023-05-07T02:40:01;11.70;;;9.50;;
3177;SDS011;38141;42.666;23.344;2023-05-07T02:42:29;15.20;;;10.93;;
3177;SDS011;38141;42.666;23.344;2023-05-07T02:44:55;15.17;;;10.60;;
3177;SDS011;38141;42.666;23.344;2023-05-07T02:47:24;17.00;;;10.60;;
3177;SDS011;38141;42.666;23.344;2023-05-07T02:49:52;19.87;;;11.00;;
3177;SDS011;38141;42.666;23.344;2023-05-07T02:52:18;14.50;;;10.57;;
3177;SDS011;38141;42.666;23.344;2023-05-07T02:54:45;15.97;;;10.67;;
3177;SDS011;38141;42.666;23.344;2023-05-07T02:57:12;13.70;;;11.07;;
3177;SDS011;38141;42.666;23.344;2023-05-07T02:59:39;13.80;;;10.60;;
3177;SDS011;38141;42.666;23.344;2023-05-07T03:02:05;20.13;;;12.03;;
3177;SDS011;38141;42.666;23.344;2023-05-07T03:04:33;17.80;;;11.50;;
3177;SDS011;38141;42.666;23.344;2023-05-07T03:07:00;15.03;;;10.87;;
3177;SDS011;38141;42.666;23.344;2023-05-07T03:09:27;17.53;;;10.77;;
3177;SDS011;38141;42.666;23.344;2023-05-07T03:11:53;19.20;;;12.00;;
3177;SDS011;38141;42.666;23.344;2023-05-07T03:14:20;16.40;;;12.17;;
3177;SDS011;38141;42.666;23.344;2023-05-07T03:16:47;18.53;;;12.10;;
3177;SDS011;38141;42.666;23.344;2023-05-07T03:19:15;17.60;;;12.50;;
3177;SDS011;38141;42.666;23.344;2023-05-07T03:21:43;20.37;;;13.33;;
3177;SDS011;38141;42.666;23.344;2023-05-07T03:24:10;18.57;;;12.37;;
3177;SDS011;38141;42.666;23.344;2023-05-07T03:26:37;18.80;;;13.10;;
3177;SDS011;38141;42.666;23.344;2023-05-07T03:29:03;19.53;;;12.83;;
3177;SDS011;38141;42.666;23.344;2023-05-07T03:31:30;22.00;;;12.30;;
3177;SDS011;38141;42.666;23.344;2023-05-07T03:33:57;20.27;;;13.30;;
3177;SDS011;38141;42.666;23.344;2023-05-07T03:36:24;18.80;;;12.63;;
3177;SDS011;38141;42.666;23.344;2023-05-07T03:38:53;20.77;;;12.87;;
3177;SDS011;38141;42.666;23.344;2023-05-07T03:41:19;20.30;;;13.97;;
3177;SDS011;38141;42.666;23.344;2023-05-07T03:43:46;17.23;;;12.40;;
3177;SDS011;38141;42.666;23.344;2023-05-07T03:46:13;25.40;;;14.13;;
3177;SDS011;38141;42.666;23.344;2023-05-07T03:48:40;21.40;;;14.90;;
3177;SDS011;38141;42.666;23.344;2023-05-07T03:51:07;20.30;;;13.80;;
3177;SDS011;38141;42.666;23.344;2023-05-07T03:53:33;18.80;;;12.70;;
3177;SDS011;38141;42.666;23.344;2023-05-07T03:56:01;15.83;;;10.90;;
3177;SDS011;38141;42.666;23.344;2023-05-07T03:58:28;17.43;;;12.20;;
3177;SDS011;38141;42.666;23.344;2023-05-07T04:00:55;19.23;;;11.90;;
3177;SDS011;38141;42.666;23.344;2023-05-07T04:03:22;18.77;;;13.37;;
3177;SDS011;38141;42.666;23.344;2023-05-07T04:05:49;17.20;;;11.60;;
3177;SDS011;38141;42.666;23.344;2023-05-07T04:08:15;19.57;;;12.87;;
3177;SDS011;38141;42.666;23.344;2023-05-07T04:10:42;21.07;;;11.60;;
3177;SDS011;38141;42.666;23.344;2023-05-07T04:13:10;16.37;;;11.17;;
3177;SDS011;38141;42.666;23.344;2023-05-07T04:15:37;15.83;;;11.10;;
3177;SDS011;38141;42.666;23.344;2023-05-07T04:18:03;14.10;;;11.53;;
3177;SDS011;38141;42.666;23.344;2023-05-07T04:20:30;15.77;;;11.00;;
3177;SDS011;38141;42.666;23.344;2023-05-07T04:23:01;15.30;;;10.73;;
3177;SDS011;38141;42.666;23.344;2023-05-07T04:25:28;15.10;;;11.40;;
3177;SDS011;38141;42.666;23.344;2023-05-07T04:27:54;14.70;;;11.80;;
3177;SDS011;38141;42.666;23.344;2023-05-07T04:30:23;14.50;;;11.23;;
3177;SDS011;38141;42.666;23.344;2023-05-07T04:32:49;13.87;;;10.10;;
3177;SDS011;38141;42.666;23.344;2023-05-07T04:35:16;17.33;;;11.00;;
3177;SDS011;38141;42.666;23.344;2023-05-07T04:37:43;16.57;;;9.73;;
3177;SDS011;38141;42.666;23.344;2023-05-07T04:40:10;14.23;;;9.60;;
3177;SDS011;38141;42.666;23.344;2023-05-07T04:42:37;13.40;;;9.20;;
3177;SDS011;38141;42.666;23.344;2023-05-07T04:45:04;14.70;;;9.50;;
3177;SDS011;38141;42.666;23.344;2023-05-07T04:47:33;14.73;;;10.17;;
3177;SDS011;38141;42.666;23.344;2023-05-07T04:49:59;12.77;;;9.30;;
3177;SDS011;38141;42.666;23.344;2023-05-07T04:52:26;13.00;;;11.27;;
3177;SDS011;38141;42.666;23.344;2023-05-07T04:54:53;15.20;;;9.77;;
3177;SDS011;38141;42.666;23.344;2023-05-07T04:57:20;10.53;;;9.37;;
3177;SDS011;38141;42.666;23.344;2023-05-07T04:59:47;10.20;;;8.70;;
3177;SDS011;38141;42.666;23.344;2023-05-07T05:02:14;9.85;;;8.93;;
3177;SDS011;38141;42.666;23.344;2023-05-07T05:04:42;10.30;;;9.30;;
3177;SDS011;38141;42.666;23.344;2023-05-07T05:07:09;9.70;;;8.70;;
3177;SDS011;38141;42.666;23.344;2023-05-07T05:09:35;10.75;;;8.63;;
3177;SDS011;38141;42.666;23.344;2023-05-07T05:12:02;10.05;;;8.38;;
3177;SDS011;38141;42.666;23.344;2023-05-07T05:14:32;9.65;;;8.57;;
3177;SDS011;38141;42.666;23.344;2023-05-07T05:16:59;14.90;;;9.02;;
3177;SDS011;38141;42.666;23.344;2023-05-07T05:19:25;10.65;;;9.13;;
3177;SDS011;38141;42.666;23.344;2023-05-07T05:21:53;11.30;;;9.75;;
3177;SDS011;38141;42.666;23.344;2023-05-07T05:24:20;11.82;;;10.30;;
3177;SDS011;38141;42.666;23.344;2023-05-07T05:26:47;10.23;;;9.18;;
3177;SDS011;38141;42.666;23.344;2023-05-07T05:29:14;10.90;;;9.43;;
3177;SDS011;38141;42.666;23.344;2023-05-07T05:31:41;12.50;;;8.80;;
3177;SDS011;38141;42.666;23.344;2023-05-07T05:34:07;12.35;;;8.90;;
3177;SDS011;38141;42.666;23.344;2023-05-07T05:36:34;10.00;;;8.38;;
3177;SDS011;38141;42.666;23.344;2023-05-07T05:39:02;10.75;;;8.80;;
3177;SDS011;38141;42.666;23.344;2023-05-07T05:41:29;13.70;;;9.70;;
3177;SDS011;38141;42.666;23.344;2023-05-07T05:43:56;12.30;;;9.27;;
3177;SDS011;38141;42.666;23.344;2023-05-07T05:46:23;11.63;;;9.10;;
3177;SDS011;38141;42.666;23.344;2023-05-07T05:48:50;9.48;;;7.97;;
3177;SDS011;38141;42.666;23.344;2023-05-07T05:51:16;10.98;;;9.00;;
3177;SDS011;38141;42.666;23.344;2023-05-07T05:53:43;10.18;;;8.63;;
3177;SDS011;38141;42.666;23.344;2023-05-07T05:56:11;10.15;;;7.88;;
3177;SDS011;38141;42.666;23.344;2023-05-07T05:58:38;9.75;;;8.25;;
3177;SDS011;38141;42.666;23.344;2023-05-07T06:01:05;10.35;;;9.30;;
3177;SDS011;38141;42.666;23.344;2023-05-07T06:03:32;11.23;;;8.85;;
3177;SDS011;38141;42.666;23.344;2023-05-07T06:05:58;9.38;;;7.70;;
3177;SDS011;38141;42.666;23.344;2023-05-07T06:08:28;9.75;;;8.15;;
3177;SDS011;38141;42.666;23.344;2023-05-07T06:10:55;9.13;;;7.75;;
3177;SDS011;38141;42.666;23.344;2023-05-07T06:13:23;9.40;;;7.35;;
3177;SDS011;38141;42.666;23.344;2023-05-07T06:15:50;8.30;;;7.45;;
3177;SDS011;38141;42.666;23.344;2023-05-07T06:18:17;10.55;;;8.15;;
3177;SDS011;38141;42.666;23.344;2023-05-07T06:20:44;10.57;;;7.55;;
3177;SDS011;38141;42.666;23.344;2023-05-07T06:23:10;8.70;;;7.80;;
3177;SDS011;38141;42.666;23.344;2023-05-07T06:25:37;8.10;;;7.30;;
3177;SDS011;38141;42.666;23.344;2023-05-07T06:28:04;11.10;;;10.00;;
3177;SDS011;38141;42.666;23.344;2023-05-07T06:30:32;21.73;;;19.65;;
3177;SDS011;38141;42.666;23.344;2023-05-07T06:32:59;44.33;;;38.33;;
3177;SDS011;38141;42.666;23.344;2023-05-07T06:35:26;19.35;;;17.33;;
3177;SDS011;38141;42.666;23.344;2023-05-07T06:37:52;22.38;;;18.92;;
3177;SDS011;38141;42.666;23.344;2023-05-07T06:40:22;15.45;;;12.32;;
3177;SDS011;38141;42.666;23.344;2023-05-07T06:42:51;7.38;;;6.68;;
3177;SDS011;38141;42.666;23.344;2023-05-07T06:45:18;53.15;;;45.50;;
3177;SDS011;38141;42.666;23.344;2023-05-07T06:47:47;22.63;;;20.33;;
3177;SDS011;38141;42.666;23.344;2023-05-07T06:50:13;17.55;;;15.95;;
3177;SDS011;38141;42.666;23.344;2023-05-07T06:52:41;9.00;;;7.68;;
3177;SDS011;38141;42.666;23.344;2023-05-07T06:55:08;17.33;;;9.50;;
3177;SDS011;38141;42.666;23.344;2023-05-07T06:57:36;8.93;;;7.03;;
3177;SDS011;38141;42.666;23.344;2023-05-07T07:00:03;8.02;;;7.32;;
3177;SDS011;38141;42.666;23.344;2023-05-07T07:02:32;9.85;;;7.50;;
3177;SDS011;38141;42.666;23.344;2023-05-07T07:05:00;8.15;;;7.35;;
3177;SDS011;38141;42.666;23.344;2023-05-07T07:07:27;9.23;;;8.23;;
3177;SDS011;38141;42.666;23.344;2023-05-07T07:09:53;7.80;;;7.00;;
3177;SDS011;38141;42.666;23.344;2023-05-07T07:12:20;7.90;;;7.18;;
3177;SDS011;38141;42.666;23.344;2023-05-07T07:14:47;9.38;;;7.45;;
3177;SDS011;38141;42.666;23.344;2023-05-07T07:17:14;9.38;;;8.43;;
3177;SDS011;38141;42.666;23.344;2023-05-07T07:19:41;11.52;;;7.90;;
3177;SDS011;38141;42.666;23.344;2023-05-07T07:22:09;14.35;;;12.48;;
3177;SDS011;38141;42.666;23.344;2023-05-07T07:24:37;34.28;;;30.75;;
3177;SDS011;38141;42.666;23.344;2023-05-07T07:27:04;13.80;;;12.10;;
3177;SDS011;38141;42.666;23.344;2023-05-07T07:29:30;9.27;;;8.38;;
3177;SDS011;38141;42.666;23.344;2023-05-07T07:32:07;12.75;;;8.60;;
3177;SDS011;38141;42.666;23.344;2023-05-07T07:34:34;12.30;;;8.57;;
3177;SDS011;38141;42.666;23.344;2023-05-07T07:37:01;10.00;;;8.73;;
3177;SDS011;38141;42.666;23.344;2023-05-07T07:39:31;12.80;;;8.70;;
3177;SDS011;38141;42.666;23.344;2023-05-07T07:41:58;13.00;;;10.05;;
3177;SDS011;38141;42.666;23.344;2023-05-07T07:44:25;10.68;;;9.07;;
3177;SDS011;38141;42.666;23.344;2023-05-07T07:46:58;12.35;;;9.90;;
3177;SDS011;38141;42.666;23.344;2023-05-07T07:49:25;12.90;;;9.10;;
3177;SDS011;38141;42.666;23.344;2023-05-07T07:51:52;12.57;;;10.00;;
3177;SDS011;38141;42.666;23.344;2023-05-07T07:54:19;14.25;;;9.77;;
3177;SDS011;38141;42.666;23.344;2023-05-07T07:56:47;15.30;;;12.05;;
3177;SDS011;38141;42.666;23.344;2023-05-07T07:59:14;11.75;;;10.30;;
3177;SDS011;38141;42.666;23.344;2023-05-07T08:01:43;15.25;;;10.52;;
3177;SDS011;38141;42.666;23.344;2023-05-07T08:04:10;13.30;;;10.68;;
3177;SDS011;38141;42.666;23.344;2023-05-07T08:06:37;12.57;;;11.07;;
3177;SDS011;38141;42.666;23.344;2023-05-07T08:09:04;16.75;;;11.13;;
3177;SDS011;38141;42.666;23.344;2023-05-07T08:11:30;17.10;;;12.00;;
3177;SDS011;38141;42.666;23.344;2023-05-07T08:13:59;15.43;;;10.43;;
3177;SDS011;38141;42.666;23.344;2023-05-07T08:16:26;18.17;;;10.77;;
3177;SDS011;38141;42.666;23.344;2023-05-07T08:18:54;11.40;;;9.75;;
3177;SDS011;38141;42.666;23.344;2023-05-07T08:21:21;12.63;;;10.23;;
3177;SDS011;38141;42.666;23.344;2023-05-07T08:23:48;12.77;;;9.90;;
3177;SDS011;38141;42.666;23.344;2023-05-07T08:26:15;10.80;;;9.50;;
3177;SDS011;38141;42.666;23.344;2023-05-07T08:28:42;13.35;;;10.48;;
3177;SDS011;38141;42.666;23.344;2023-05-07T08:31:10;16.00;;;9.95;;
3177;SDS011;38141;42.666;23.344;2023-05-07T08:33:36;11.10;;;9.35;;
3177;SDS011;38141;42.666;23.344;2023-05-07T08:36:04;12.15;;;10.63;;
3177;SDS011;38141;42.666;23.344;2023-05-07T08:38:31;16.77;;;9.85;;
3177;SDS011;38141;42.666;23.344;2023-05-07T08:40:58;12.02;;;10.05;;
3177;SDS011;38141;42.666;23.344;2023-05-07T08:43:26;10.80;;;9.23;;
3177;SDS011;38141;42.666;23.344;2023-05-07T08:45:53;11.45;;;9.05;;
3177;SDS011;38141;42.666;23.344;2023-05-07T08:48:24;14.80;;;8.35;;
3177;SDS011;38141;42.666;23.344;2023-05-07T08:50:51;9.60;;;7.68;;
3177;SDS011;38141;42.666;23.344;2023-05-07T08:53:18;9.10;;;7.40;;
3177;SDS011;38141;42.666;23.344;2023-05-07T08:55:46;9.07;;;8.18;;
3177;SDS011;38141;42.666;23.344;2023-05-07T08:58:14;12.10;;;7.97;;
3177;SDS011;38141;42.666;23.344;2023-05-07T09:00:41;9.80;;;7.43;;
3177;SDS011;38141;42.666;23.344;2023-05-07T09:03:08;10.82;;;7.68;;
3177;SDS011;38141;42.666;23.344;2023-05-07T09:05:41;10.15;;;7.03;;
3177;SDS011;38141;42.666;23.344;2023-05-07T09:08:08;7.43;;;6.65;;
3177;SDS011;38141;42.666;23.344;2023-05-07T09:10:35;10.30;;;6.85;;
3177;SDS011;38141;42.666;23.344;2023-05-07T09:13:02;7.55;;;6.75;;
3177;SDS011;38141;42.666;23.344;2023-05-07T09:15:30;7.72;;;6.93;;
3177;SDS011;38141;42.666;23.344;2023-05-07T09:17:59;9.75;;;6.45;;
3177;SDS011;38141;42.666;23.344;2023-05-07T09:20:27;7.68;;;6.47;;
3177;SDS011;38141;42.666;23.344;2023-05-07T09:22:57;7.78;;;6.80;;
3177;SDS011;38141;42.666;23.344;2023-05-07T09:25:33;7.20;;;6.50;;
3177;SDS011;38141;42.666;23.344;2023-05-07T09:28:01;7.38;;;5.65;;
3177;SDS011;38141;42.666;23.344;2023-05-07T09:30:29;6.38;;;5.68;;
3177;SDS011;38141;42.666;23.344;2023-05-07T09:32:56;12.52;;;6.40;;
3177;SDS011;38141;42.666;23.344;2023-05-07T09:35:24;7.18;;;6.47;;
3177;SDS011;38141;42.666;23.344;2023-05-07T09:37:52;6.60;;;5.95;;
3177;SDS011;38141;42.666;23.344;2023-05-07T09:40:21;6.57;;;5.68;;
3177;SDS011;38141;42.666;23.344;2023-05-07T09:42:51;7.90;;;5.45;;
3177;SDS011;38141;42.666;23.344;2023-05-07T09:45:21;5.95;;;5.35;;
3177;SDS011;38141;42.666;23.344;2023-05-07T09:47:48;5.88;;;5.28;;
3177;SDS011;38141;42.666;23.344;2023-05-07T09:50:19;6.22;;;5.63;;
3177;SDS011;38141;42.666;23.344;2023-05-07T09:52:52;8.07;;;5.15;;
3177;SDS011;38141;42.666;23.344;2023-05-07T09:55:19;5.10;;;4.65;;
3177;SDS011;38141;42.666;23.344;2023-05-07T09:57:48;9.50;;;5.15;;
3177;SDS011;38141;42.666;23.344;2023-05-07T10:00:17;5.07;;;4.68;;
3177;SDS011;38141;42.666;23.344;2023-05-07T10:02:46;6.70;;;4.53;;
3177;SDS011;38141;42.666;23.344;2023-05-07T10:05:15;5.95;;;5.00;;
3177;SDS011;38141;42.666;23.344;2023-05-07T10:07:42;6.07;;;4.32;;
3177;SDS011;38141;42.666;23.344;2023-05-07T10:10:09;5.43;;;4.65;;
3177;SDS011;38141;42.666;23.344;2023-05-07T10:12:37;5.30;;;4.80;;
3177;SDS011;38141;42.666;23.344;2023-05-07T10:15:07;6.35;;;4.70;;
3177;SDS011;38141;42.666;23.344;2023-05-07T10:17:35;4.53;;;4.18;;
3177;SDS011;38141;42.666;23.344;2023-05-07T10:20:03;6.07;;;4.85;;
3177;SDS011;38141;42.666;23.344;2023-05-07T10:22:30;5.63;;;5.10;;
3177;SDS011;38141;42.666;23.344;2023-05-07T10:25:03;7.32;;;5.78;;
3177;SDS011;38141;42.666;23.344;2023-05-07T10:27:36;7.00;;;5.68;;
3177;SDS011;38141;42.666;23.344;2023-05-07T10:30:07;4.93;;;4.47;;
3177;SDS011;38141;42.666;23.344;2023-05-07T10:32:44;7.10;;;5.18;;
3177;SDS011;38141;42.666;23.344;2023-05-07T10:35:14;7.25;;;5.50;;
3177;SDS011;38141;42.666;23.344;2023-05-07T10:37:44;9.07;;;5.15;;
3177;SDS011;38141;42.666;23.344;2023-05-07T10:40:12;5.10;;;4.60;;
3177;SDS011;38141;42.666;23.344;2023-05-07T10:42:49;5.10;;;4.60;;
3177;SDS011;38141;42.666;23.344;2023-05-07T10:45:21;8.82;;;6.63;;
3177;SDS011;38141;42.666;23.344;2023-05-07T10:48:08;8.73;;;5.15;;
3177;SDS011;38141;42.666;23.344;2023-05-07T10:50:36;6.57;;;5.93;;
3177;SDS011;38141;42.666;23.344;2023-05-07T10:53:23;18.95;;;5.38;;
3177;SDS011;38141;42.666;23.344;2023-05-07T10:58:49;11.65;;;9.63;;
3177;SDS011;38141;42.666;23.344;2023-05-07T11:01:17;6.32;;;5.07;;
3177;SDS011;38141;42.666;23.344;2023-05-07T11:04:17;7.63;;;4.93;;
3177;SDS011;38141;42.666;23.344;2023-05-07T11:09:59;23.40;;;17.95;;
3177;SDS011;38141;42.666;23.344;2023-05-07T11:12:46;17.17;;;13.05;;
3177;SDS011;38141;42.666;23.344;2023-05-07T11:15:14;7.93;;;6.00;;
3177;SDS011;38141;42.666;23.344;2023-05-07T11:18:00;6.28;;;5.68;;
3177;SDS011;38141;42.666;23.344;2023-05-07T11:26:18;5.80;;;5.30;;
3177;SDS011;38141;42.666;23.344;2023-05-07T11:28:45;6.85;;;5.85;;
3177;SDS011;38141;42.666;23.344;2023-05-07T11:31:12;6.07;;;5.47;;
3177;SDS011;38141;42.666;23.344;2023-05-07T11:33:41;9.27;;;5.78;;
3177;SDS011;38141;42.666;23.344;2023-05-07T11:36:10;6.35;;;5.75;;
3177;SDS011;38141;42.666;23.344;2023-05-07T11:38:37;6.55;;;5.95;;
3177;SDS011;38141;42.666;23.344;2023-05-07T11:41:04;5.82;;;4.60;;
3177;SDS011;38141;42.666;23.344;2023-05-07T11:43:31;7.03;;;5.40;;
3177;SDS011;38141;42.666;23.344;2023-05-07T11:46:07;7.50;;;5.47;;
3177;SDS011;38141;42.666;23.344;2023-05-07T11:48:35;10.35;;;5.65;;
3177;SDS011;38141;42.666;23.344;2023-05-07T11:51:04;6.50;;;5.82;;
3177;SDS011;38141;42.666;23.344;2023-05-07T11:53:37;6.22;;;5.63;;
3177;SDS011;38141;42.666;23.344;2023-05-07T11:56:08;6.25;;;5.50;;
3177;SDS011;38141;42.666;23.344;2023-05-07T11:58:36;8.07;;;6.20;;
3177;SDS011;38141;42.666;23.344;2023-05-07T12:01:03;6.25;;;5.65;;
3177;SDS011;38141;42.666;23.344;2023-05-07T12:03:30;8.35;;;6.30;;
3177;SDS011;38141;42.666;23.344;2023-05-07T12:05:57;9.15;;;5.68;;
3177;SDS011;38141;42.666;23.344;2023-05-07T12:08:25;7.35;;;6.32;;
3177;SDS011;38141;42.666;23.344;2023-05-07T12:10:52;6.05;;;5.55;;
3177;SDS011;38141;42.666;23.344;2023-05-07T12:13:20;14.45;;;9.00;;
3177;SDS011;38141;42.666;23.344;2023-05-07T12:15:50;7.03;;;6.43;;
3177;SDS011;38141;42.666;23.344;2023-05-07T12:18:17;8.15;;;5.70;;
3177;SDS011;38141;42.666;23.344;2023-05-07T12:20:44;6.53;;;5.93;;
3177;SDS011;38141;42.666;23.344;2023-05-07T12:23:12;6.72;;;6.13;;
3177;SDS011;38141;42.666;23.344;2023-05-07T12:25:40;6.13;;;5.63;;
3177;SDS011;38141;42.666;23.344;2023-05-07T12:28:13;6.55;;;5.43;;
3177;SDS011;38141;42.666;23.344;2023-05-07T12:30:40;7.32;;;6.00;;
3177;SDS011;38141;42.666;23.344;2023-05-07T12:33:08;6.38;;;5.70;;
3177;SDS011;38141;42.666;23.344;2023-05-07T12:35:36;9.05;;;6.35;;
3177;SDS011;38141;42.666;23.344;2023-05-07T12:38:06;6.40;;;5.38;;
3177;SDS011;38141;42.666;23.344;2023-05-07T12:40:37;5.53;;;5.03;;
3177;SDS011;38141;42.666;23.344;2023-05-07T12:43:06;8.88;;;5.35;;
3177;SDS011;38141;42.666;23.344;2023-05-07T12:45:36;5.57;;;4.50;;
3177;SDS011;38141;42.666;23.344;2023-05-07T12:48:04;7.93;;;4.50;;
3177;SDS011;38141;42.666;23.344;2023-05-07T12:50:31;8.52;;;5.45;;
3177;SDS011;38141;42.666;23.344;2023-05-07T12:52:59;5.03;;;4.57;;
3177;SDS011;38141;42.666;23.344;2023-05-07T12:55:28;4.88;;;4.43;;
3177;SDS011;38141;42.666;23.344;2023-05-07T12:57:55;5.38;;;4.35;;
3177;SDS011;38141;42.666;23.344;2023-05-07T13:00:37;6.43;;;4.40;;
3177;SDS011;38141;42.666;23.344;2023-05-07T13:03:05;5.60;;;4.20;;
3177;SDS011;38141;42.666;23.344;2023-05-07T13:05:32;6.55;;;4.75;;
3177;SDS011;38141;42.666;23.344;2023-05-07T13:07:59;5.90;;;4.55;;
3177;SDS011;38141;42.666;23.344;2023-05-07T13:10:28;7.75;;;6.95;;
3177;SDS011;38141;42.666;23.344;2023-05-07T13:12:54;4.88;;;4.47;;
3177;SDS011;38141;42.666;23.344;2023-05-07T13:15:21;6.88;;;5.03;;
3177;SDS011;38141;42.666;23.344;2023-05-07T13:17:49;4.63;;;4.22;;
3177;SDS011;38141;42.666;23.344;2023-05-07T13:20:16;7.60;;;4.75;;
3177;SDS011;38141;42.666;23.344;2023-05-07T13:22:43;9.40;;;6.22;;
3177;SDS011;38141;42.666;23.344;2023-05-07T13:25:10;19.63;;;14.98;;
3177;SDS011;38141;42.666;23.344;2023-05-07T13:27:37;11.50;;;10.00;;
3177;SDS011;38141;42.666;23.344;2023-05-07T13:30:04;5.75;;;4.57;;
3177;SDS011;38141;42.666;23.344;2023-05-07T13:32:51;4.78;;;4.20;;
3177;SDS011;38141;42.666;23.344;2023-05-07T13:35:18;5.75;;;4.47;;
3177;SDS011;38141;42.666;23.344;2023-05-07T13:37:45;6.10;;;4.07;;
3177;SDS011;38141;42.666;23.344;2023-05-07T13:40:13;7.55;;;3.85;;
3177;SDS011;38141;42.666;23.344;2023-05-07T13:42:40;4.65;;;4.20;;
3177;SDS011;38141;42.666;23.344;2023-05-07T13:45:07;5.35;;;4.25;;
3177;SDS011;38141;42.666;23.344;2023-05-07T13:47:35;5.10;;;4.60;;
3177;SDS011;38141;42.666;23.344;2023-05-07T13:50:03;4.57;;;4.15;;
3177;SDS011;38141;42.666;23.344;2023-05-07T13:52:31;6.32;;;4.78;;
3177;SDS011;38141;42.666;23.344;2023-05-07T13:54:57;5.30;;;4.80;;
3177;SDS011;38141;42.666;23.344;2023-05-07T13:57:24;6.13;;;5.35;;
3177;SDS011;38141;42.666;23.344;2023-05-07T13:59:51;5.22;;;4.72;;
3177;SDS011;38141;42.666;23.344;2023-05-07T14:02:18;4.88;;;3.88;;
3177;SDS011;38141;42.666;23.344;2023-05-07T14:04:45;6.35;;;4.60;;
3177;SDS011;38141;42.666;23.344;2023-05-07T14:07:13;4.72;;;4.30;;
3177;SDS011;38141;42.666;23.344;2023-05-07T14:09:40;5.15;;;4.65;;
3177;SDS011;38141;42.666;23.344;2023-05-07T14:12:07;5.13;;;4.20;;
3177;SDS011;38141;42.666;23.344;2023-05-07T14:14:34;6.25;;;4.63;;
3177;SDS011;38141;42.666;23.344;2023-05-07T14:17:01;5.35;;;4.85;;
3177;SDS011;38141;42.666;23.344;2023-05-07T14:19:27;14.45;;;11.65;;
3177;SDS011;38141;42.666;23.344;2023-05-07T14:21:54;12.02;;;8.73;;
3177;SDS011;38141;42.666;23.344;2023-05-07T14:24:23;4.78;;;4.38;;
3177;SDS011;38141;42.666;23.344;2023-05-07T14:26:50;6.97;;;4.55;;
3177;SDS011;38141;42.666;23.344;2023-05-07T14:29:17;4.18;;;3.75;;
3177;SDS011;38141;42.666;23.344;2023-05-07T14:31:44;5.88;;;4.57;;
3177;SDS011;38141;42.666;23.344;2023-05-07T14:34:10;5.90;;;4.32;;
3177;SDS011;38141;42.666;23.344;2023-05-07T14:36:37;4.53;;;4.07;;
3177;SDS011;38141;42.666;23.344;2023-05-07T14:39:04;5.25;;;4.38;;
3177;SDS011;38141;42.666;23.344;2023-05-07T14:41:32;5.47;;;4.03;;
3177;SDS011;38141;42.666;23.344;2023-05-07T14:43:59;5.55;;;3.95;;
3177;SDS011;38141;42.666;23.344;2023-05-07T14:46:25;4.70;;;3.92;;
3177;SDS011;38141;42.666;23.344;2023-05-07T14:48:52;5.10;;;4.03;;
3177;SDS011;38141;42.666;23.344;2023-05-07T14:51:19;5.03;;;4.25;;
3177;SDS011;38141;42.666;23.344;2023-05-07T14:53:47;4.50;;;4.10;;